Time;durP1;ratioP1;P1;durP2;ratioP2;P2;SDS_P1;SDS_P2;PMS_P1;PMS_P2;Temp;Humidity;BMP_temperature;BMP_pressure;BME280_temperature;BME280_humidity;BME280_pressure;Samples;Min_cycle;Max_cycle;Signal;HPM_P1;HPM_P2
2023/11/01 00:00:22;;;;;;;4.38;1.30;;;;;;;;;;1055819;28;20033;-74
2023/11/01 00:00:53;;;;;;;1.80;1.42;;;;;;;;;;1053557;28;20376;-74
2023/11/01 00:01:23;;;;;;;3.17;2.97;;;;;;;;;;1055447;28;20028;-74
2023/11/01 00:01:54;;;;;;;0.70;0.70;;;;;;;;;;1055752;28;20122;-74
2023/11/01 00:02:25;;;;;;;1.30;1.23;;;;;;;;;;1055992;27;20108;-74
2023/11/01 00:02:55;;;;;;;1.58;1.17;;;;;;;;;;1055990;28;20507;-74
2023/11/01 00:03:26;;;;;;;3.20;2.28;;;;;;;;;;1053858;28;20143;-74
2023/11/01 00:03:56;;;;;;;4.72;2.63;;;;;;;;;;1054077;28;20030;-74
2023/11/01 00:04:27;;;;;;;0.82;0.82;;;;;;;;;;1053967;28;20020;-74
2023/11/01 00:04:57;;;;;;;6.50;3.70;;;;;;;;;;1056110;28;20024;-74
2023/11/01 00:05:28;;;;;;;0.45;0.45;;;;;;;;;;1051614;28;20059;-74
2023/11/01 00:05:58;;;;;;;2.63;1.13;;;;;;;;;;1051838;28;20065;-74
2023/11/01 00:06:29;;;;;;;1.80;1.55;;;;;;;;;;1047650;28;20031;-74
2023/11/01 00:06:59;;;;;;;2.17;1.52;;;;;;;;;;1051708;28;20031;-74
2023/11/01 00:07:30;;;;;;;1.05;1.05;;;;;;;;;;1051327;28;20505;-74
2023/11/01 00:08:00;;;;;;;3.92;3.30;;;;;;;;;;1051634;28;20082;-74
2023/11/01 00:08:31;;;;;;;5.05;1.52;;;;;;;;;;1056025;28;20059;-74
2023/11/01 00:09:02;;;;;;;1.83;1.73;;;;;;;;;;1055989;28;20093;-74
2023/11/01 00:09:32;;;;;;;1.63;1.52;;;;;;;;;;1054850;28;20031;-74
2023/11/01 00:10:03;;;;;;;0.75;0.63;;;;;;;;;;1056230;28;20114;-74
2023/11/01 00:10:34;;;;;;;1.35;0.93;;;;;;;;;;1051792;28;20031;-74
2023/11/01 00:11:04;;;;;;;0.77;0.77;;;;;;;;;;1056118;28;20454;-74
2023/11/01 00:11:35;;;;;;;0.43;0.43;;;;;;;;;;1056022;28;20118;-74
2023/11/01 00:12:05;;;;;;;4.18;0.90;;;;;;;;;;1056102;28;20023;-74
2023/11/01 00:12:36;;;;;;;2.70;0.90;;;;;;;;;;1055744;28;20467;-74
2023/11/01 00:13:06;;;;;;;0.75;0.75;;;;;;;;;;1056584;28;20031;-74
2023/11/01 00:13:37;;;;;;;0.93;0.93;;;;;;;;;;1055585;28;20129;-74
2023/11/01 00:14:07;;;;;;;3.90;2.05;;;;;;;;;;1055840;28;20043;-75
2023/11/01 00:14:38;;;;;;;3.17;1.33;;;;;;;;;;1055911;28;20139;-75
2023/11/01 00:15:09;;;;;;;2.85;2.15;;;;;;;;;;1056161;28;20022;-74
2023/11/01 00:15:39;;;;;;;2.33;2.22;;;;;;;;;;1056300;28;20117;-74
2023/11/01 00:16:10;;;;;;;8.48;2.03;;;;;;;;;;1056278;28;20028;-74
2023/11/01 00:16:41;;;;;;;0.52;0.52;;;;;;;;;;1056221;28;20054;-74
2023/11/01 00:17:11;;;;;;;0.73;0.73;;;;;;;;;;1055905;28;20034;-75
2023/11/01 00:17:42;;;;;;;2.42;1.45;;;;;;;;;;1055834;28;20106;-74
2023/11/01 00:18:13;;;;;;;1.65;1.55;;;;;;;;;;1055933;28;20050;-74
2023/11/01 00:18:43;;;;;;;1.58;1.27;;;;;;;;;;1055700;28;20073;-74
2023/11/01 00:19:14;;;;;;;0.70;0.70;;;;;;;;;;1055881;28;20020;-74
2023/11/01 00:19:44;;;;;;;2.38;2.20;;;;;;;;;;1055566;28;20379;-74
2023/11/01 00:20:15;;;;;;;1.02;1.00;;;;;;;;;;1056421;28;20125;-74
2023/11/01 00:20:45;;;;;;;4.38;2.58;;;;;;;;;;1056251;28;20019;-74
2023/11/01 00:21:16;;;;;;;1.10;1.02;;;;;;;;;;1056094;28;20089;-74
2023/11/01 00:21:46;;;;;;;0.82;0.70;;;;;;;;;;1055934;28;20583;-74
2023/11/01 00:22:17;;;;;;;8.57;1.67;;;;;;;;;;1056130;28;20032;-74
2023/11/01 00:22:47;;;;;;;0.95;0.95;;;;;;;;;;1055039;28;20050;-74
2023/11/01 00:23:18;;;;;;;0.22;0.22;;;;;;;;;;1054902;28;20069;-74
2023/11/01 00:23:49;;;;;;;1.35;0.95;;;;;;;;;;1055284;28;20050;-74
2023/11/01 00:24:21;;;;;;;0.93;0.93;;;;;;;;;;1055936;28;20027;-74
2023/11/01 00:24:51;;;;;;;1.60;1.50;;;;;;;;;;1055699;28;20024;-74
2023/11/01 00:25:22;;;;;;;0.43;0.43;;;;;;;;;;1055591;28;20053;-74
2023/11/01 00:25:53;;;;;;;4.60;2.30;;;;;;;;;;1055516;28;20453;-74
2023/11/01 00:26:23;;;;;;;0.40;0.40;;;;;;;;;;1055995;28;20111;-74
2023/11/01 00:26:54;;;;;;;1.27;1.17;;;;;;;;;;1056103;28;20038;-74
2023/11/01 00:27:24;;;;;;;0.93;0.85;;;;;;;;;;1055455;28;20110;-74
2023/11/01 00:27:55;;;;;;;0.68;0.68;;;;;;;;;;1056019;28;20020;-74
2023/11/01 00:28:27;;;;;;;2.78;2.60;;;;;;;;;;1056044;28;20093;-74
2023/11/01 00:28:57;;;;;;;2.75;2.65;;;;;;;;;;1056081;28;20030;-74
2023/11/01 00:29:28;;;;;;;0.20;0.20;;;;;;;;;;1053897;28;20107;-74
2023/11/01 00:29:59;;;;;;;1.75;1.45;;;;;;;;;;1056069;28;20463;-74
2023/11/01 00:30:30;;;;;;;0.50;0.50;;;;;;;;;;1055906;28;20400;-74
2023/11/01 00:31:00;;;;;;;1.67;1.58;;;;;;;;;;1056419;28;20031;-74
2023/11/01 00:31:31;;;;;;;1.75;0.68;;;;;;;;;;1055514;28;20054;-74
2023/11/01 00:32:01;;;;;;;0.55;0.55;;;;;;;;;;1051382;28;20020;-74
2023/11/01 00:32:32;;;;;;;4.55;2.28;;;;;;;;;;1051667;28;20137;-74
2023/11/01 00:33:03;;;;;;;0.50;0.50;;;;;;;;;;1050852;28;20019;-74
2023/11/01 00:33:33;;;;;;;1.05;1.05;;;;;;;;;;1054944;28;20050;-74
2023/11/01 00:34:04;;;;;;;4.10;1.50;;;;;;;;;;1056408;28;20024;-74
2023/11/01 00:34:34;;;;;;;1.45;1.35;;;;;;;;;;1056109;28;20532;-74
2023/11/01 00:35:06;;;;;;;0.30;0.30;;;;;;;;;;1055998;28;20027;-74
2023/11/01 00:35:36;;;;;;;1.10;0.85;;;;;;;;;;1055736;28;20032;-74
2023/11/01 00:36:07;;;;;;;0.38;0.38;;;;;;;;;;1056348;28;20035;-74
2023/11/01 00:36:38;;;;;;;0.40;0.40;;;;;;;;;;1055489;28;20938;-74
2023/11/01 00:37:08;;;;;;;1.63;1.52;;;;;;;;;;1056462;28;20034;-74
2023/11/01 00:37:39;;;;;;;0.73;0.73;;;;;;;;;;1055940;28;20364;-74
2023/11/01 00:38:09;;;;;;;3.55;1.33;;;;;;;;;;1056022;28;20114;-74
2023/11/01 00:38:40;;;;;;;4.28;3.03;;;;;;;;;;1056177;28;20027;-74
2023/11/01 00:39:10;;;;;;;1.88;0.93;;;;;;;;;;1055782;28;20114;-74
2023/11/01 00:39:41;;;;;;;2.72;1.48;;;;;;;;;;1055894;28;20019;-74
2023/11/01 00:40:11;;;;;;;3.10;1.95;;;;;;;;;;1055994;28;20478;-74
2023/11/01 00:40:42;;;;;;;2.65;2.47;;;;;;;;;;1055926;28;20020;-74
2023/11/01 00:41:13;;;;;;;1.77;1.48;;;;;;;;;;1059884;27;20022;-74
2023/11/01 00:41:43;;;;;;;2.83;2.55;;;;;;;;;;1055843;28;20039;-74
2023/11/01 00:42:14;;;;;;;2.17;0.75;;;;;;;;;;1055707;28;20084;-74
2023/11/01 00:42:45;;;;;;;1.42;1.33;;;;;;;;;;1055559;28;20028;-74
2023/11/01 00:43:16;;;;;;;1.10;1.10;;;;;;;;;;1055436;28;20058;-74
2023/11/01 00:43:47;;;;;;;0.70;0.70;;;;;;;;;;1055955;28;20045;-74
2023/11/01 00:44:17;;;;;;;1.45;1.35;;;;;;;;;;1056358;28;20451;-74
2023/11/01 00:44:48;;;;;;;0.68;0.57;;;;;;;;;;1055970;28;20118;-75
2023/11/01 00:45:18;;;;;;;1.27;1.10;;;;;;;;;;1055108;28;20027;-75
2023/11/01 00:45:49;;;;;;;0.22;0.22;;;;;;;;;;1053858;28;20441;-74
2023/11/01 00:46:19;;;;;;;1.80;1.70;;;;;;;;;;1053751;28;20045;-74
2023/11/01 00:46:50;;;;;;;2.08;1.95;;;;;;;;;;1053783;28;20032;-74
2023/11/01 00:47:20;;;;;;;1.23;1.13;;;;;;;;;;1055896;28;20414;-74
2023/11/01 00:47:51;;;;;;;2.15;1.95;;;;;;;;;;1056278;28;20106;-74
2023/11/01 00:48:21;;;;;;;3.28;2.50;;;;;;;;;;1056296;28;20433;-74
2023/11/01 00:48:52;;;;;;;9.52;2.20;;;;;;;;;;1055984;28;20386;-74
2023/11/01 00:49:23;;;;;;;0.52;0.52;;;;;;;;;;1055892;28;20024;-74
2023/11/01 00:49:53;;;;;;;3.00;2.17;;;;;;;;;;1055866;28;20498;-74
2023/11/01 00:50:24;;;;;;;2.15;2.05;;;;;;;;;;1056238;28;20027;-74
2023/11/01 00:50:54;;;;;;;0.85;0.70;;;;;;;;;;1056168;28;20171;-74
2023/11/01 00:51:25;;;;;;;6.60;0.55;;;;;;;;;;1055956;28;20019;-74
2023/11/01 00:51:55;;;;;;;1.45;0.55;;;;;;;;;;1056461;28;20019;-74
2023/11/01 00:52:26;;;;;;;2.47;1.58;;;;;;;;;;1055754;28;20057;-74
2023/11/01 00:52:56;;;;;;;2.40;2.30;;;;;;;;;;1056029;28;20023;-74
2023/11/01 00:53:27;;;;;;;0.43;0.43;;;;;;;;;;1055705;28;20051;-74
2023/11/01 00:53:57;;;;;;;0.30;0.30;;;;;;;;;;1056212;28;20035;-74
2023/11/01 00:54:28;;;;;;;1.98;1.85;;;;;;;;;;1055760;28;20039;-74
2023/11/01 00:54:59;;;;;;;0.98;0.98;;;;;;;;;;1055604;28;20023;-74
2023/11/01 00:55:29;;;;;;;0.88;0.88;;;;;;;;;;1055420;28;20015;-74
2023/11/01 00:56:00;;;;;;;0.73;0.73;;;;;;;;;;1055512;28;20495;-74
2023/11/01 00:56:30;;;;;;;0.77;0.77;;;;;;;;;;1055800;28;20028;-74
2023/11/01 00:57:01;;;;;;;1.17;0.90;;;;;;;;;;1056211;28;20032;-74
2023/11/01 00:57:32;;;;;;;2.25;2.05;;;;;;;;;;1054276;28;20507;-74
2023/11/01 00:58:03;;;;;;;2.50;1.30;;;;;;;;;;1056162;28;20118;-74
2023/11/01 00:58:34;;;;;;;0.30;0.30;;;;;;;;;;1055216;28;20470;-74
2023/11/01 00:59:04;;;;;;;1.65;1.13;;;;;;;;;;1055689;28;20035;-74
2023/11/01 00:59:35;;;;;;;1.60;1.05;;;;;;;;;;1055893;28;20521;-74
2023/11/01 01:00:06;;;;;;;2.60;1.55;;;;;;;;;;1055427;28;20020;-74
2023/11/01 01:00:37;;;;;;;1.02;0.85;;;;;;;;;;1055131;28;20016;-74
2023/11/01 01:01:07;;;;;;;1.05;0.98;;;;;;;;;;1055452;28;20687;-74
2023/11/01 01:01:38;;;;;;;3.50;1.55;;;;;;;;;;1055435;28;20517;-74
2023/11/01 01:02:08;;;;;;;10.43;1.83;;;;;;;;;;1055253;28;20016;-74
2023/11/01 01:02:39;;;;;;;3.97;1.42;;;;;;;;;;1056310;27;20483;-74
2023/11/01 01:03:10;;;;;;;0.45;0.45;;;;;;;;;;1055643;28;20020;-74
2023/11/01 01:03:41;;;;;;;0.43;0.43;;;;;;;;;;1052757;28;20546;-74
2023/11/01 01:04:11;;;;;;;0.45;0.45;;;;;;;;;;1053287;28;20031;-74
2023/11/01 01:04:46;;;;;;;2.22;1.70;;;;;;;;;;1054261;28;20028;-74
2023/11/01 01:05:17;;;;;;;0.90;0.90;;;;;;;;;;1054862;28;20019;-74
2023/11/01 01:05:47;;;;;;;1.48;1.38;;;;;;;;;;1055763;28;20118;-74
2023/11/01 01:06:18;;;;;;;1.15;1.10;;;;;;;;;;1054721;28;20041;-74
2023/11/01 01:06:48;;;;;;;0.40;0.40;;;;;;;;;;1054310;28;20043;-74
2023/11/01 01:07:19;;;;;;;0.30;0.30;;;;;;;;;;1055653;28;20023;-74
2023/11/01 01:07:50;;;;;;;0.82;0.82;;;;;;;;;;1055488;28;20107;-74
2023/11/01 01:08:20;;;;;;;0.65;0.65;;;;;;;;;;1056068;28;20012;-74
2023/11/01 01:08:51;;;;;;;2.58;1.23;;;;;;;;;;1055740;28;20043;-74
2023/11/01 01:09:21;;;;;;;0.73;0.73;;;;;;;;;;1055342;28;20027;-74
2023/11/01 01:09:52;;;;;;;4.07;1.88;;;;;;;;;;1055716;28;20023;-74
2023/11/01 01:10:22;;;;;;;1.55;1.10;;;;;;;;;;1056048;28;20023;-74
2023/11/01 01:10:53;;;;;;;0.68;0.68;;;;;;;;;;1056027;28;20030;-74
2023/11/01 01:11:23;;;;;;;1.35;1.25;;;;;;;;;;1055959;28;20459;-74
2023/11/01 01:11:54;;;;;;;1.35;1.27;;;;;;;;;;1056008;28;20027;-74
2023/11/01 01:12:24;;;;;;;4.15;3.30;;;;;;;;;;1055717;28;20112;-74
2023/11/01 01:12:55;;;;;;;1.95;1.85;;;;;;;;;;1055949;28;20612;-74
2023/11/01 01:13:25;;;;;;;3.47;2.45;;;;;;;;;;1055590;28;20387;-74
2023/11/01 01:13:56;;;;;;;3.25;1.45;;;;;;;;;;1055637;28;20114;-74
2023/11/01 01:14:26;;;;;;;2.90;2.22;;;;;;;;;;1054622;28;20110;-74
2023/11/01 01:14:57;;;;;;;1.58;1.48;;;;;;;;;;1055848;28;20466;-72
2023/11/01 01:15:28;;;;;;;0.90;0.90;;;;;;;;;;1055219;28;20023;-74
2023/11/01 01:15:58;;;;;;;2.13;1.95;;;;;;;;;;1055198;28;20103;-74
2023/11/01 01:16:29;;;;;;;3.75;1.38;;;;;;;;;;1054311;28;20388;-74
2023/11/01 01:16:59;;;;;;;1.40;1.15;;;;;;;;;;1055466;28;20024;-74
2023/11/01 01:17:30;;;;;;;0.55;0.55;;;;;;;;;;1055433;28;20031;-74
2023/11/01 01:18:00;;;;;;;1.17;1.17;;;;;;;;;;1056581;28;20019;-74
2023/11/01 01:18:31;;;;;;;1.05;1.05;;;;;;;;;;1054747;28;20019;-75
2023/11/01 01:19:01;;;;;;;0.85;0.65;;;;;;;;;;1055543;28;20106;-74
2023/11/01 01:19:32;;;;;;;0.40;0.40;;;;;;;;;;1054797;28;20047;-74
2023/11/01 01:20:03;;;;;;;2.50;0.57;;;;;;;;;;1055382;28;20468;-74
2023/11/01 01:20:33;;;;;;;0.70;0.47;;;;;;;;;;1055831;28;20109;-74
2023/11/01 01:21:04;;;;;;;0.38;0.38;;;;;;;;;;1055031;28;20038;-74
2023/11/01 01:21:35;;;;;;;2.53;2.33;;;;;;;;;;1052929;28;20080;-74
2023/11/01 01:22:06;;;;;;;1.08;1.08;;;;;;;;;;1055548;28;20101;-74
2023/11/01 01:22:36;;;;;;;2.97;1.58;;;;;;;;;;1054524;28;20534;-74
2023/11/01 01:23:07;;;;;;;1.00;0.65;;;;;;;;;;1052638;28;20027;-75
2023/11/01 01:23:38;;;;;;;0.80;0.80;;;;;;;;;;1053871;28;20034;-74
2023/11/01 01:24:09;;;;;;;5.05;0.90;;;;;;;;;;1050021;28;20046;-74
2023/11/01 01:24:39;;;;;;;0.77;0.77;;;;;;;;;;1050083;28;20090;-74
2023/11/01 01:25:10;;;;;;;0.52;0.25;;;;;;;;;;1052918;28;20541;-74
2023/11/01 01:25:40;;;;;;;2.22;1.13;;;;;;;;;;1054885;28;20012;-74
2023/11/01 01:26:11;;;;;;;1.17;1.17;;;;;;;;;;1055129;28;20024;-74
2023/11/01 01:26:41;;;;;;;0.60;0.60;;;;;;;;;;1055322;28;20075;-74
2023/11/01 01:27:12;;;;;;;1.38;1.27;;;;;;;;;;1054720;28;20596;-74
2023/11/01 01:27:43;;;;;;;0.63;0.63;;;;;;;;;;1055560;28;20023;-74
2023/11/01 01:28:14;;;;;;;1.98;1.85;;;;;;;;;;1054966;28;20609;-74
2023/11/01 01:28:45;;;;;;;0.35;0.35;;;;;;;;;;1054153;28;20080;-74
2023/11/01 01:29:15;;;;;;;1.10;1.00;;;;;;;;;;1054770;28;20031;-74
2023/11/01 01:29:46;;;;;;;0.22;0.22;;;;;;;;;;1054631;28;20020;-74
2023/11/01 01:30:16;;;;;;;1.67;1.58;;;;;;;;;;1054154;28;20028;-74
2023/11/01 01:30:47;;;;;;;2.65;1.67;;;;;;;;;;1054270;28;20038;-74
2023/11/01 01:31:17;;;;;;;0.28;0.28;;;;;;;;;;1054630;28;20467;-74
2023/11/01 01:31:48;;;;;;;3.25;1.50;;;;;;;;;;1054166;28;20067;-74
2023/11/01 01:32:18;;;;;;;1.00;0.95;;;;;;;;;;1053773;28;20019;-75
2023/11/01 01:32:49;;;;;;;2.13;1.95;;;;;;;;;;1054321;28;20418;-74
2023/11/01 01:33:19;;;;;;;1.75;1.65;;;;;;;;;;1056014;28;20375;-74
2023/11/01 01:33:50;;;;;;;0.50;0.50;;;;;;;;;;1057345;28;20597;-74
2023/11/01 01:34:22;;;;;;;2.28;1.75;;;;;;;;;;1056976;28;20028;-74
2023/11/01 01:34:52;;;;;;;1.63;1.52;;;;;;;;;;1057859;28;20115;-75
2023/11/01 01:35:23;;;;;;;0.52;0.52;;;;;;;;;;1053462;28;20027;-74
2023/11/01 01:35:54;;;;;;;9.10;3.47;;;;;;;;;;1050470;28;20491;-74
2023/11/01 01:36:26;;;;;;;4.13;3.30;;;;;;;;;;1049087;28;20880;-75
2023/11/01 01:36:56;;;;;;;0.70;0.70;;;;;;;;;;1046420;28;20056;-74
2023/11/01 01:37:27;;;;;;;10.43;1.58;;;;;;;;;;1048523;28;20112;-75
2023/11/01 01:37:58;;;;;;;4.35;1.45;;;;;;;;;;1053535;28;20027;-75
2023/11/01 01:38:28;;;;;;;1.60;1.50;;;;;;;;;;1054740;28;20651;-74
2023/11/01 01:38:59;;;;;;;3.10;2.15;;;;;;;;;;1055724;28;20030;-74
2023/11/01 01:39:30;;;;;;;0.95;0.95;;;;;;;;;;1054668;28;20030;-74
2023/11/01 01:40:00;;;;;;;0.40;0.40;;;;;;;;;;1055883;28;20047;-74
2023/11/01 01:40:34;;;;;;;2.70;2.50;;;;;;;;;;1054808;28;20616;-74
2023/11/01 01:41:05;;;;;;;0.70;0.70;;;;;;;;;;1054577;28;20542;-74
2023/11/01 01:41:36;;;;;;;1.30;1.25;;;;;;;;;;1055466;28;20113;-74
2023/11/01 01:42:06;;;;;;;0.90;0.50;;;;;;;;;;1055616;28;20137;-74
2023/11/01 01:42:37;;;;;;;5.60;1.88;;;;;;;;;;1054118;28;20039;-74
2023/11/01 01:43:28;;;;;;;2.10;0.82;;;;;;;;;;1054302;28;20027;-74
2023/11/01 01:43:58;;;;;;;0.68;0.68;;;;;;;;;;1054019;28;20382;-74
2023/11/01 01:44:29;;;;;;;1.65;1.55;;;;;;;;;;1053710;28;20000;-75
2023/11/01 01:45:01;;;;;;;1.63;1.52;;;;;;;;;;1054570;28;20038;-74
2023/11/01 01:45:32;;;;;;;0.93;0.88;;;;;;;;;;1055332;28;20512;-74
2023/11/01 01:46:13;;;;;;;3.88;3.58;;;;;;;;;;1054733;28;20026;-75
2023/11/01 01:46:44;;;;;;;0.38;0.38;;;;;;;;;;1058545;28;20057;-74
2023/11/01 01:47:15;;;;;;;0.20;0.20;;;;;;;;;;1054175;28;20087;-73
2023/11/01 01:47:47;;;;;;;0.75;0.75;;;;;;;;;;1055230;28;20454;-73
2023/11/01 01:48:18;;;;;;;0.52;0.52;;;;;;;;;;1055089;28;20100;-74
2023/11/01 01:48:49;;;;;;;0.50;0.50;;;;;;;;;;1051734;28;20101;-74
2023/11/01 01:49:20;;;;;;;12.25;2.75;;;;;;;;;;1052973;28;20024;-74
2023/11/01 01:49:52;;;;;;;2.03;1.92;;;;;;;;;;1056023;28;20478;-75
2023/11/01 01:50:22;;;;;;;0.28;0.28;;;;;;;;;;1053957;28;20027;-75
2023/11/01 01:50:53;;;;;;;0.43;0.43;;;;;;;;;;1055917;28;20027;-75
2023/11/01 01:51:24;;;;;;;1.10;0.95;;;;;;;;;;1053923;28;20015;-75
2023/11/01 01:51:55;;;;;;;0.65;0.45;;;;;;;;;;1054967;28;20856;-75
2023/11/01 01:52:26;;;;;;;1.35;1.25;;;;;;;;;;1055327;28;20022;-75
2023/11/01 01:52:57;;;;;;;1.65;1.55;;;;;;;;;;1054313;27;20034;-75
2023/11/01 01:53:27;;;;;;;11.65;1.35;;;;;;;;;;1049283;28;20020;-75
2023/11/01 01:53:58;;;;;;;4.40;3.72;;;;;;;;;;1048348;28;20016;-76
2023/11/01 01:54:30;;;;;;;1.95;1.33;;;;;;;;;;1050302;28;20043;-75
2023/11/01 01:55:00;;;;;;;0.40;0.40;;;;;;;;;;1047519;28;20020;-74
2023/11/01 01:55:31;;;;;;;0.50;0.50;;;;;;;;;;1046863;28;20729;-74
2023/11/01 01:56:02;;;;;;;0.52;0.52;;;;;;;;;;1051188;28;20498;-74
2023/11/01 01:56:33;;;;;;;2.50;2.28;;;;;;;;;;1054099;27;20141;-74
2023/11/01 01:57:03;;;;;;;0.70;0.70;;;;;;;;;;1054955;27;20015;-74
2023/11/01 01:57:34;;;;;;;0.95;0.80;;;;;;;;;;1052503;27;20069;-74
2023/11/01 01:58:05;;;;;;;13.30;1.42;;;;;;;;;;1054225;27;20058;-74
2023/11/01 01:58:36;;;;;;;1.40;1.35;;;;;;;;;;1051819;28;20028;-74
2023/11/01 01:59:07;;;;;;;4.43;1.92;;;;;;;;;;1054708;28;20102;-74
2023/11/01 01:59:38;;;;;;;13.18;1.98;;;;;;;;;;1054993;28;20027;-74
2023/11/01 02:00:09;;;;;;;3.13;1.23;;;;;;;;;;1055349;28;20552;-73
2023/11/01 02:00:39;;;;;;;0.52;0.52;;;;;;;;;;1049928;28;20157;-73
2023/11/01 02:01:11;;;;;;;0.20;0.20;;;;;;;;;;1054468;28;20525;-73
2023/11/01 02:01:41;;;;;;;16.50;2.47;;;;;;;;;;1055679;28;20512;-74
2023/11/01 02:02:12;;;;;;;5.85;1.85;;;;;;;;;;1056381;27;20038;-74
2023/11/01 02:02:44;;;;;;;3.60;0.90;;;;;;;;;;1055154;28;20096;-73
2023/11/01 02:03:15;;;;;;;1.77;1.67;;;;;;;;;;1055421;27;20051;-72
2023/11/01 02:03:45;;;;;;;1.25;1.15;;;;;;;;;;1054882;27;20057;-72
2023/11/01 02:04:16;;;;;;;0.65;0.65;;;;;;;;;;1058730;27;20535;-72
2023/11/01 02:04:48;;;;;;;0.68;0.60;;;;;;;;;;1052530;28;20027;-73
2023/11/01 02:05:18;;;;;;;0.32;0.32;;;;;;;;;;1054128;28;20118;-73
2023/11/01 02:05:49;;;;;;;1.73;1.63;;;;;;;;;;1053541;28;20100;-73
2023/11/01 02:06:19;;;;;;;0.80;0.65;;;;;;;;;;1051349;28;20136;-72
2023/11/01 02:06:50;;;;;;;0.15;0.15;;;;;;;;;;1054551;28;21007;-72
2023/11/01 02:07:20;;;;;;;3.72;1.20;;;;;;;;;;1049483;28;20090;-72
2023/11/01 02:07:51;;;;;;;10.80;1.58;;;;;;;;;;1053541;27;20106;-72
2023/11/01 02:08:22;;;;;;;1.08;0.98;;;;;;;;;;1053379;27;20364;-72
2023/11/01 02:08:53;;;;;;;0.22;0.22;;;;;;;;;;1054139;27;20058;-73
2023/11/01 02:09:23;;;;;;;0.20;0.20;;;;;;;;;;1056924;27;20417;-73
2023/11/01 02:09:54;;;;;;;0.32;0.32;;;;;;;;;;1058440;27;20063;-74
2023/11/01 02:10:27;;;;;;;0.45;0.45;;;;;;;;;;1055420;27;20510;-73
2023/11/01 02:10:58;;;;;;;1.67;1.58;;;;;;;;;;1055114;28;20031;-74
2023/11/01 02:11:29;;;;;;;0.20;0.20;;;;;;;;;;1053532;28;20050;-74
2023/11/01 02:11:59;;;;;;;3.10;1.77;;;;;;;;;;1052410;28;20028;-74
2023/11/01 02:12:30;;;;;;;3.10;2.83;;;;;;;;;;1053022;27;20109;-73
2023/11/01 02:13:13;;;;;;;1.23;1.02;;;;;;;;;;1054270;27;20031;-74
2023/11/01 02:13:45;;;;;;;0.43;0.43;;;;;;;;;;1047480;28;20016;-74
2023/11/01 02:14:15;;;;;;;0.95;0.95;;;;;;;;;;1050242;28;20489;-73
2023/11/01 02:14:46;;;;;;;0.70;0.70;;;;;;;;;;1051826;28;20519;-73
2023/11/01 02:15:16;;;;;;;0.20;0.20;;;;;;;;;;1052337;27;20133;-74
2023/11/01 02:15:48;;;;;;;2.30;0.95;;;;;;;;;;1053092;28;20027;-74
2023/11/01 02:16:18;;;;;;;4.07;3.40;;;;;;;;;;1053618;28;20053;-74
2023/11/01 02:16:50;;;;;;;0.20;0.20;;;;;;;;;;1053192;28;20016;-73
2023/11/01 02:17:20;;;;;;;0.60;0.60;;;;;;;;;;1050332;28;20364;-73
2023/11/01 02:17:51;;;;;;;0.30;0.20;;;;;;;;;;1054597;27;20024;-73
2023/11/01 02:18:22;;;;;;;0.55;0.55;;;;;;;;;;1053467;28;20565;-74
2023/11/01 02:18:52;;;;;;;1.20;1.13;;;;;;;;;;1051490;28;20031;-73
2023/11/01 02:19:24;;;;;;;0.68;0.68;;;;;;;;;;1054166;28;20032;-73
2023/11/01 02:19:55;;;;;;;1.42;0.70;;;;;;;;;;1052764;28;20051;-72
2023/11/01 02:20:26;;;;;;;1.15;1.10;;;;;;;;;;1054607;28;20039;-74
2023/11/01 02:20:57;;;;;;;0.20;0.20;;;;;;;;;;1055151;28;20081;-73
2023/11/01 02:21:28;;;;;;;0.70;0.70;;;;;;;;;;1053497;28;20050;-72
2023/11/01 02:21:58;;;;;;;1.15;1.05;;;;;;;;;;1055485;28;20078;-73
2023/11/01 02:22:38;;;;;;;6.68;1.45;;;;;;;;;;1053480;27;20043;-73
2023/11/01 02:23:09;;;;;;;0.45;0.45;;;;;;;;;;1051597;28;20096;-74
2023/11/01 02:23:40;;;;;;;0.47;0.47;;;;;;;;;;1051679;28;20171;-75
2023/11/01 02:24:11;;;;;;;1.02;0.98;;;;;;;;;;1051997;28;20107;-75
2023/11/01 02:24:43;;;;;;;7.88;2.22;;;;;;;;;;1053096;28;20031;-72
2023/11/01 02:25:14;;;;;;;2.05;1.95;;;;;;;;;;1054447;28;20039;-72
2023/11/01 02:25:45;;;;;;;0.20;0.20;;;;;;;;;;1053755;28;20032;-73
2023/11/01 02:26:16;;;;;;;1.70;1.17;;;;;;;;;;1052746;28;20466;-72
2023/11/01 02:26:46;;;;;;;1.55;1.17;;;;;;;;;;1052511;28;20026;-72
2023/11/01 02:27:17;;;;;;;1.00;0.95;;;;;;;;;;1055651;28;20370;-72
2023/11/01 02:27:49;;;;;;;0.30;0.30;;;;;;;;;;1055178;28;20495;-73
2023/11/01 02:28:19;;;;;;;1.77;1.13;;;;;;;;;;1052666;28;20050;-74
2023/11/01 02:28:50;;;;;;;0.98;0.93;;;;;;;;;;1052871;28;20051;-74
2023/11/01 02:29:22;;;;;;;0.43;0.43;;;;;;;;;;1051534;28;20055;-74
2023/11/01 02:29:52;;;;;;;1.23;1.13;;;;;;;;;;1050120;28;20473;-74
2023/11/01 02:30:24;;;;;;;1.20;0.75;;;;;;;;;;1052070;28;20031;-74
2023/11/01 02:30:55;;;;;;;0.30;0.30;;;;;;;;;;1048048;28;20681;-74
2023/11/01 02:31:25;;;;;;;0.38;0.35;;;;;;;;;;1048811;28;20490;-74
2023/11/01 02:31:56;;;;;;;0.20;0.20;;;;;;;;;;1050123;28;20028;-74
2023/11/01 02:32:27;;;;;;;0.63;0.63;;;;;;;;;;1047950;28;20105;-74
2023/11/01 02:32:57;;;;;;;0.57;0.57;;;;;;;;;;1053484;28;20070;-74
2023/11/01 02:33:28;;;;;;;0.57;0.57;;;;;;;;;;1054101;27;20616;-74
2023/11/01 02:33:59;;;;;;;4.53;3.10;;;;;;;;;;1051592;28;20028;-74
2023/11/01 02:34:29;;;;;;;1.52;1.42;;;;;;;;;;1052913;28;20081;-75
2023/11/01 02:35:00;;;;;;;0.45;0.45;;;;;;;;;;1054685;28;20016;-73
2023/11/01 02:35:30;;;;;;;0.77;0.17;;;;;;;;;;1050476;28;20024;-74
2023/11/01 02:36:02;;;;;;;0.45;0.45;;;;;;;;;;1055464;27;20047;-73
2023/11/01 02:36:32;;;;;;;1.00;1.00;;;;;;;;;;1057248;27;20142;-73
2023/11/01 02:37:03;;;;;;;2.58;1.25;;;;;;;;;;1057653;27;20707;-72
2023/11/01 02:37:34;;;;;;;1.38;1.30;;;;;;;;;;1053967;28;20485;-73
2023/11/01 02:38:05;;;;;;;2.22;1.95;;;;;;;;;;1053864;28;20019;-73
2023/11/01 02:38:35;;;;;;;0.70;0.70;;;;;;;;;;1053942;28;20542;-73
2023/11/01 02:39:10;;;;;;;0.45;0.45;;;;;;;;;;1054360;28;20040;-77
2023/11/01 02:39:41;;;;;;;2.85;0.85;;;;;;;;;;1054351;28;20027;-73
2023/11/01 02:40:16;;;;;;;1.38;1.23;;;;;;;;;;1054681;28;20118;-73
2023/11/01 02:40:48;;;;;;;1.55;1.23;;;;;;;;;;1059175;27;20511;-74
2023/11/01 02:41:18;;;;;;;0.55;0.40;;;;;;;;;;1058795;27;20027;-72
2023/11/01 02:41:49;;;;;;;0.55;0.55;;;;;;;;;;1058393;27;20908;-73
2023/11/01 02:42:19;;;;;;;0.98;0.90;;;;;;;;;;1056078;27;20030;-73
2023/11/01 02:42:55;;;;;;;1.83;1.55;;;;;;;;;;1052864;28;20524;-73
2023/11/01 02:43:26;;;;;;;1.08;0.65;;;;;;;;;;1052747;28;20035;-73
2023/11/01 02:43:56;;;;;;;0.25;0.25;;;;;;;;;;1049771;28;20052;-74
2023/11/01 02:44:27;;;;;;;0.55;0.55;;;;;;;;;;1045846;28;20028;-73
2023/11/01 02:44:58;;;;;;;0.25;0.25;;;;;;;;;;1051376;28;20023;-72
2023/11/01 02:45:28;;;;;;;3.55;1.55;;;;;;;;;;1050061;28;20038;-73
2023/11/01 02:45:59;;;;;;;0.63;0.63;;;;;;;;;;1049353;28;20024;-72
2023/11/01 02:46:29;;;;;;;0.52;0.52;;;;;;;;;;1053250;28;20207;-73
2023/11/01 02:47:00;;;;;;;1.13;0.70;;;;;;;;;;1052945;28;20031;-72
2023/11/01 02:47:30;;;;;;;0.55;0.55;;;;;;;;;;1052440;28;20023;-73
2023/11/01 02:48:01;;;;;;;0.60;0.60;;;;;;;;;;1049868;28;20803;-74
2023/11/01 02:48:32;;;;;;;0.35;0.35;;;;;;;;;;1049082;28;20511;-73
2023/11/01 02:49:03;;;;;;;0.55;0.47;;;;;;;;;;1046806;28;20694;-73
2023/11/01 02:49:34;;;;;;;1.60;0.65;;;;;;;;;;1041706;28;20090;-73
2023/11/01 02:50:06;;;;;;;2.63;2.03;;;;;;;;;;1041833;28;20067;-73
2023/11/01 02:50:37;;;;;;;1.10;0.98;;;;;;;;;;1041167;28;20131;-73
2023/11/01 02:51:07;;;;;;;0.40;0.40;;;;;;;;;;1042855;28;20024;-71
2023/11/01 02:51:38;;;;;;;0.30;0.22;;;;;;;;;;1044172;28;20028;-72
2023/11/01 02:52:08;;;;;;;0.63;0.63;;;;;;;;;;1047708;28;20032;-74
2023/11/01 02:52:39;;;;;;;0.40;0.40;;;;;;;;;;1048452;28;20622;-73
2023/11/01 02:53:10;;;;;;;2.50;1.30;;;;;;;;;;1054721;27;20038;-73
2023/11/01 02:53:40;;;;;;;0.05;0.05;;;;;;;;;;1055938;28;20109;-73
2023/11/01 02:54:11;;;;;;;0.40;0.40;;;;;;;;;;1059061;28;20064;-73
2023/11/01 02:54:41;;;;;;;4.53;2.38;;;;;;;;;;1058316;28;20072;-73
2023/11/01 02:55:13;;;;;;;0.38;0.38;;;;;;;;;;1055352;28;20039;-73
2023/11/01 02:55:43;;;;;;;1.00;0.95;;;;;;;;;;1054509;28;20043;-73
2023/11/01 02:56:14;;;;;;;0.03;0.03;;;;;;;;;;1054265;28;20024;-72
2023/11/01 02:56:46;;;;;;;0.45;0.45;;;;;;;;;;1053560;28;20538;-73
2023/11/01 02:57:16;;;;;;;2.30;2.20;;;;;;;;;;1053434;28;20762;-72
2023/11/01 02:57:47;;;;;;;0.30;0.30;;;;;;;;;;1053723;28;20088;-72
2023/11/01 02:58:18;;;;;;;1.95;1.08;;;;;;;;;;1052886;28;20175;-71
2023/11/01 02:58:48;;;;;;;1.25;1.08;;;;;;;;;;1052633;28;20028;-72
2023/11/01 02:59:19;;;;;;;0.55;0.40;;;;;;;;;;1052463;27;20387;-72
2023/11/01 02:59:49;;;;;;;2.53;1.65;;;;;;;;;;1050789;28;20035;-72
2023/11/01 03:00:20;;;;;;;0.15;0.15;;;;;;;;;;1052979;28;20134;-72
2023/11/01 03:00:53;;;;;;;1.23;1.23;;;;;;;;;;1051273;28;21339;-75
2023/11/01 03:01:25;;;;;;;1.05;1.00;;;;;;;;;;1051250;28;20704;-74
2023/11/01 03:01:56;;;;;;;0.10;0.10;;;;;;;;;;1046181;28;20073;-74
2023/11/01 03:02:29;;;;;;;0.05;0.05;;;;;;;;;;1048368;28;20572;-72
2023/11/01 03:03:00;;;;;;;0.00;0.00;;;;;;;;;;1047716;28;20444;-73
2023/11/01 03:03:32;;;;;;;1.55;1.13;;;;;;;;;;1045132;28;20020;-73
2023/11/01 03:04:04;;;;;;;0.95;0.95;;;;;;;;;;1046549;28;20032;-73
2023/11/01 03:04:34;;;;;;;0.45;0.45;;;;;;;;;;1049172;28;20054;-73
2023/11/01 03:05:05;;;;;;;0.50;0.50;;;;;;;;;;1049990;28;20027;-73
2023/11/01 03:05:37;;;;;;;0.43;0.40;;;;;;;;;;1055328;28;20464;-78